LSME - Emmen, Switzerland
Distance from HB9FEE: SW 14km
Updated: Wed, 26-Jul-2017 7:50am CEST
Light rain, Showers, Few clouds
Light rain, Showers, Few clouds
 Wind from S
Wind: S 7 km/h
Temperature: 14°C
Dew Point: 13°C
Humidity: 94%
Barometer: 1013 hPa
Summary: Light rain, Showers
Clouds: Few Clouds
Visibility: 16 miles
Cloud details: Few Clouds 792 m
2017/07/26 05:50 LSME 260550Z AUTO 18004KT 140V220 9999NDV -SHRA FEW026 14/13 Q1013 RMK
LSZC - Buochs, Switzerland
Distance from HB9FEE: S 25km
Updated: Wed, 26-Jul-2017 8:50am CEST
Rain, Mist, Partly cloudy
Rain, Mist, Partly cloudy
 Wind from varies
Wind: varies 6 km/h
Temperature: 13°C
Dew Point: 11°C
Humidity: 88%
Barometer: 1014 hPa
Summary: Rain, Mist
Clouds: Partly Cloudy
Visibility: 5 km
Cloud details: Mostly Cloudy 1219 m
Partly Cloudy 1524 m
2017/07/26 06:50 LSZC 260650Z AUTO VRB03KT 4600 RA BR BKN040 SCT050 13/11 Q1014
 
LSMA - Alpnach, Switzerland
Distance from HB9FEE: SSW 29km
Updated: Wed, 26-Jul-2017 7:50am CEST
Rain, Overcast
Rain, Overcast
 Wind from varies
Wind: varies 4 km/h
Temperature: 13°C
Dew Point: 12°C
Humidity: 94%
Barometer: 1014 hPa
Summary: Rain
Clouds: Overcast
Visibility: 6 km
Cloud details: Few Clouds 152 m
Mostly Cloudy 1158 m
Overcast 1433 m
2017/07/26 05:50 LSMA 260550Z VRB02KT 6000 RA FEW005 BKN038 OVC047 13/12 Q1014 RMK WHT
LSMD - Dubendorf, Switzerland
Distance from HB9FEE: NE 29km
Updated: Wed, 26-Jul-2017 7:50am CEST
Light rain, Mostly cloudy
Light rain, Mostly cloudy
 Wind from WNW
Wind: WNW 15 km/h
Temperature: 14°C
Dew Point: 12°C
Humidity: 88%
Barometer: 1012 hPa
Summary: Light Rain
Clouds: Mostly Cloudy
Visibility: 10 km
Cloud details: Mostly Cloudy 610 m
Mostly Cloudy 1524 m
2017/07/26 05:50 LSMD 260550Z 30008KT 260V340 9999 -RA BKN020 BKN050 14/12 Q1012 RMK WHT
 
LSZH - Zurich-Kloten (a, Switzerland
Distance from HB9FEE: NNE 33km
Updated: Wed, 26-Jul-2017 8:50am CEST
Mostly Cloudy
Mostly Cloudy
 Wind from varies
Wind: varies 4 km/h
Temperature: 14°C
Dew Point: 11°C
Humidity: 82%
Barometer: 1013 hPa
Clouds: Mostly Cloudy
Visibility: 10 km
Cloud details: Few Clouds 305 m
Mostly Cloudy 1311 m
Mostly Cloudy 2134 m
2017/07/26 06:50 LSZH 260650Z VRB02KT 9999 FEW010 BKN043 BKN070 14/11 Q1013 TEMPO RA
LSMM - Meiringen, Switzerland
Distance from HB9FEE: SSW 54km
Updated: Wed, 26-Jul-2017 7:50am CEST
Rain, Overcast
Rain, Overcast
 Wind from WSW
Wind: WSW 9 km/h
Temperature: 12°C
Dew Point: 12°C
Humidity: 100%
Barometer: 1014 hPa
Summary: Rain
Clouds: Overcast
Visibility: 10 miles
Cloud details: Partly Cloudy 244 m
Mostly Cloudy 305 m
Overcast 1036 m
2017/07/26 05:50 LSMM 260550Z AUTO 25005KT 220V300 6000NDV RA SCT008 BKN010 OVC034 12/12 Q1014 RMK
 
LSZB - Bern/Belp, Switzerland
Distance from HB9FEE: WSW 76km
Updated: Wed, 26-Jul-2017 8:50am CEST
Mostly Cloudy
Mostly Cloudy
 Wind from SE
Wind: SE 7 km/h
Temperature: 14°C
Dew Point: 13°C
Humidity: 94%
Barometer: 1014 hPa
Clouds: Mostly Cloudy
Visibility: 10 km
Cloud details: Few Clouds 152 m
Partly Cloudy 914 m
Mostly Cloudy 2438 m
2017/07/26 06:50 LSZB 260650Z 14004KT 9999 FEW005 SCT030 BKN080 14/13 Q1014 NOSIG
LSZG - Grenchen, Switzerland
Distance from HB9FEE: W 76km
Updated: Wed, 26-Jul-2017 8:50am CEST
Mostly Cloudy
Mostly Cloudy
 Wind from SW
Wind: SW 13 km/h
Temperature: 15°C
Dew Point: 13°C
Humidity: 88%
Barometer: 1014 hPa
Clouds: Mostly Cloudy
Visibility: 10 km
Cloud details: Few Clouds 914 m
Partly Cloudy 2316 m
Mostly Cloudy 4572 m
2017/07/26 06:50 LSZG 260650Z 23007KT 9999 FEW030 SCT076 BKN150 15/13 Q1014 NOSIG
 
LFSB - Bale/Mulhouse, France
Distance from HB9FEE: NW 82km
Updated: Wed, 26-Jul-2017 8:30am CEST
Light rain, Mostly cloudy
Light rain, Mostly cloudy
 Wind from WSW
Wind: WSW 19 km/h
Temperature: 14°C
Dew Point: 12°C
Humidity: 88%
Barometer: 1013 hPa
Summary: Light Rain
Clouds: Mostly Cloudy
Visibility: 10 km
Cloud details: Few Clouds 396 m
Mostly Cloudy 1615 m
2017/07/26 06:30 LFSB 260630Z 24010KT 9999 -RA FEW013 BKN053 14/12 Q1013 NOSIG
LSZR - Rheineck/Altenrh, Switzerland
Distance from HB9FEE: ENE 92km
Updated: Wed, 26-Jul-2017 8:50am CEST
Rain, Mostly cloudy
Rain, Mostly cloudy
 Wind from W
Wind: W 22 km/h
Temperature: 14°C
Dew Point: 11°C
Humidity: 82%
Barometer: 1011 hPa
Summary: Rain
Clouds: Mostly Cloudy
Visibility: 9 km
Cloud details: Mostly Cloudy 1189 m
2017/07/26 06:50 LSZR 260650Z 26012KT 200V290 9000 RA BKN039 14/11 Q1011 NOSIG RMK C
 
LSZL - Locarno, Switzerland
Distance from HB9FEE: SSE 119km
Updated: Wed, 26-Jul-2017 8:50am CEST
Partly Cloudy
Partly Cloudy
 Wind from E
Wind: E 11 km/h
Temperature: 20°C
Dew Point: 9°C
Humidity: 49%
Barometer: 1007 hPa
Clouds: Partly Cloudy
Visibility: 10 km
Cloud details: Partly Cloudy 3048 m
2017/07/26 06:50 LSZL 260650Z 08006KT 030V130 9999 SCT100 20/09 Q1007 RMK BLU+
LSMP - Payerne (mil/Aut, Switzerland
Distance from HB9FEE: WSW 121km
Updated: Wed, 26-Jul-2017 7:50am CEST
Mostly Cloudy
Mostly Cloudy
 Wind from SW
Wind: SW 9 km/h
Temperature: 15°C
Dew Point: 13°C
Humidity: 88%
Barometer: 1014 hPa
Clouds: Mostly Cloudy
Visibility: 10 km
Cloud details: Partly Cloudy 1311 m
Mostly Cloudy 4267 m
2017/07/26 05:50 LSMP 260550Z 22005KT 9999 SCT043 BKN140 15/13 Q1014 RMK BLU
 
LSGC - Les Eplatures, Switzerland
Distance from HB9FEE: W 123km
Updated: Wed, 26-Jul-2017 8:50am CEST
Mostly Cloudy
Mostly Cloudy
 Wind from SSW
Wind: SSW 11 km/h
Temperature: 10°C
Wind Chill: 8°C
Dew Point: 10°C
Humidity: 100%
Barometer: 1015 hPa
Clouds: Mostly Cloudy
Visibility: 10 km
Cloud details: Mostly Cloudy 244 m
2017/07/26 06:50 LSGC 260650Z 21006KT 180V270 9999 BKN008 10/10 Q1015
LSZS - Samedan, Switzerland
Distance from HB9FEE: ESE 133km
Updated: Wed, 26-Jul-2017 8:50am CEST
Light rain, Mostly cloudy
Light rain, Mostly cloudy
 Wind from NE
Wind: NE 17 km/h
Temperature: 6°C
Wind Chill: 3°C
Dew Point: 4°C
Humidity: 87%
Barometer: 1012 hPa
Summary: Light Rain
Clouds: Mostly Cloudy
Visibility: 10 km
Cloud details: Partly Cloudy 1280 m
Mostly Cloudy 1554 m
2017/07/26 06:50 LSZS 260650Z 04009KT 9999 -RA SCT042 BKN051 06/04 Q1012 RMK C
 
LSGS - Sion (mil/Civ/Au, Switzerland
Distance from HB9FEE: SW 137km
Updated: Wed, 26-Jul-2017 8:50am CEST
Mostly Cloudy
Mostly Cloudy
 Wind from WSW
Wind: WSW 6 km/h
Temperature: 14°C
Dew Point: 12°C
Humidity: 88%
Barometer: 1014 hPa
Clouds: Mostly Cloudy
Visibility: 10 km
Cloud details: Few Clouds 305 m
Partly Cloudy 2134 m
Mostly Cloudy 3353 m
2017/07/26 06:50 LSGS 260650Z 25003KT 230V300 9999 FEW010 SCT070 BKN110 14/12 Q1014
LSZA - Lugano (pvt/Aut), Switzerland
Distance from HB9FEE: SSE 138km
Updated: Wed, 26-Jul-2017 8:50am CEST
Clear
Clear
 Wind from S
Wind: S 9 km/h
Temperature: 20°C
Dew Point: 10°C
Humidity: 53%
Barometer: 1007 hPa
Summary: Clear
Visibility: greater than 10 km
2017/07/26 06:50 LSZA 260650Z 18005KT 100V210 CAVOK 20/10 Q1007 NOSIG